createdAt,value
2018-10-05T00:01:35.020Z,91.60
2018-10-05T00:04:03.224Z,91.60
2018-10-05T00:06:31.507Z,91.60
2018-10-05T00:08:59.902Z,91.50
2018-10-05T00:11:28.115Z,91.40
2018-10-05T00:13:56.407Z,91.10
2018-10-05T00:16:24.570Z,91.10
2018-10-05T00:18:53.524Z,91.10
2018-10-05T00:21:21.872Z,90.90
2018-10-05T00:23:50.295Z,90.90
2018-10-05T00:26:18.570Z,91.00
2018-10-05T00:28:46.797Z,90.80
2018-10-05T00:31:15.168Z,90.80
2018-10-05T00:33:43.373Z,90.70
2018-10-05T00:36:11.577Z,90.50
2018-10-05T00:38:39.787Z,90.70
2018-10-05T00:41:08.014Z,90.50
2018-10-05T00:43:36.205Z,90.50
2018-10-05T00:46:04.409Z,90.40
2018-10-05T00:48:32.626Z,90.30
2018-10-05T00:51:00.753Z,90.20
2018-10-05T00:53:29.216Z,90.20
2018-10-05T00:55:57.398Z,90.10
2018-10-05T00:58:25.575Z,90.00
2018-10-05T01:00:53.755Z,90.00
2018-10-05T01:03:22.137Z,90.00
2018-10-05T01:05:57.115Z,89.90
2018-10-05T01:08:25.558Z,90.10
2018-10-05T01:10:53.825Z,90.30
2018-10-05T01:13:22.050Z,90.30
2018-10-05T01:15:50.263Z,90.40
2018-10-05T01:18:19.261Z,90.60
2018-10-05T01:20:48.092Z,90.70
2018-10-05T01:23:16.342Z,90.80
2018-10-05T01:25:44.529Z,90.80
2018-10-05T01:28:12.693Z,90.80
2018-10-05T01:30:40.876Z,90.70
2018-10-05T01:33:09.020Z,90.80
2018-10-05T01:35:37.355Z,90.80
2018-10-05T01:38:05.556Z,90.80
2018-10-05T01:40:33.741Z,90.80
2018-10-05T01:43:01.978Z,90.80
2018-10-05T01:45:30.221Z,90.80
2018-10-05T01:47:58.460Z,90.80
2018-10-05T01:50:28.644Z,90.70
2018-10-05T01:52:56.920Z,90.80
2018-10-05T01:55:25.141Z,90.90
2018-10-05T01:57:53.418Z,90.90
2018-10-05T02:00:21.680Z,90.90
2018-10-05T02:02:49.896Z,91.10
2018-10-05T02:05:18.131Z,91.10
2018-10-05T02:07:46.365Z,91.10
2018-10-05T02:10:16.177Z,91.20
2018-10-05T02:12:52.010Z,91.20
2018-10-05T02:15:25.568Z,91.20
2018-10-05T02:17:55.471Z,91.00
2018-10-05T02:23:11.811Z,91.20
2018-10-05T02:25:41.699Z,91.00
2018-10-05T02:49:53.085Z,90.70
2018-10-05T02:52:24.683Z,90.50
2018-10-05T02:54:53.207Z,90.40
2018-10-05T02:57:23.227Z,90.50
2018-10-05T02:59:52.767Z,90.40
2018-10-05T03:02:32.951Z,90.20
2018-10-05T03:07:41.633Z,90.00
2018-10-05T03:10:13.706Z,90.10
2018-10-05T03:12:42.255Z,89.90
2018-10-05T03:15:10.943Z,89.40
2018-10-05T03:17:39.844Z,89.50
2018-10-05T03:24:46.556Z,89.10
2018-10-05T03:27:25.539Z,89.00
2018-10-05T03:29:59.735Z,89.00
2018-10-05T03:35:27.033Z,88.50
2018-10-05T03:40:47.466Z,88.00
2018-10-05T03:43:20.613Z,87.70
2018-10-05T03:51:35.103Z,87.50
2018-10-05T03:56:48.383Z,87.40
2018-10-05T04:03:18.347Z,87.30
2018-10-05T04:05:57.395Z,86.80
2018-10-05T04:11:18.011Z,86.30
2018-10-05T04:13:56.031Z,86.40
2018-10-05T04:16:47.317Z,86.10
2018-10-05T04:33:08.763Z,85.60
2018-10-05T04:41:36.548Z,83.90
2018-10-05T04:44:06.152Z,83.60
2018-10-05T04:46:34.639Z,83.10
2018-10-05T04:49:11.624Z,82.20
2018-10-05T04:57:23.036Z,82.10
2018-10-05T05:09:02.347Z,81.50
2018-10-05T05:28:57.601Z,81.60
2018-10-05T05:31:26.118Z,81.50
2018-10-05T05:33:54.440Z,81.80
2018-10-05T05:36:22.706Z,82.10
2018-10-05T05:38:50.884Z,81.90
2018-10-05T05:41:19.084Z,81.60
2018-10-05T05:43:47.293Z,81.90
2018-10-05T05:46:15.568Z,82.10
2018-10-05T05:48:44.086Z,82.20
2018-10-05T05:51:12.478Z,82.20
2018-10-05T05:53:40.641Z,82.30
2018-10-05T05:56:08.859Z,82.20
2018-10-05T05:59:40.343Z,82.40
2018-10-05T06:02:08.581Z,82.30
2018-10-05T06:04:36.840Z,82.60
2018-10-05T06:07:05.034Z,82.50
2018-10-05T06:09:33.301Z,82.40
2018-10-05T06:12:01.479Z,82.20
2018-10-05T06:14:29.719Z,82.30
2018-10-05T06:16:58.073Z,82.30
2018-10-05T06:19:26.291Z,82.20
2018-10-05T06:21:54.691Z,82.10
2018-10-05T06:24:22.669Z,81.90
2018-10-05T06:26:50.909Z,81.50
2018-10-05T06:29:19.360Z,81.80
2018-10-05T06:31:47.865Z,81.70
2018-10-05T06:34:16.593Z,81.60
2018-10-05T06:36:44.833Z,81.90
2018-10-05T06:39:13.232Z,81.60
2018-10-05T06:41:41.503Z,81.90
2018-10-05T06:44:09.733Z,81.50
2018-10-05T06:46:37.952Z,81.40
2018-10-05T06:49:06.204Z,81.20
2018-10-05T06:51:34.421Z,80.60
2018-10-05T06:54:03.135Z,80.20
2018-10-05T06:56:31.345Z,80.50
2018-10-05T06:58:59.651Z,79.30
2018-10-05T07:01:28.557Z,78.80
2018-10-05T07:03:56.677Z,78.60
2018-10-05T07:06:24.911Z,78.60
2018-10-05T07:08:53.127Z,77.70
2018-10-05T07:11:21.428Z,77.60
2018-10-05T07:13:49.674Z,77.10
2018-10-05T07:16:18.062Z,77.10
2018-10-05T07:18:46.316Z,77.00
2018-10-05T07:21:14.607Z,76.40
2018-10-05T07:23:42.880Z,76.40
2018-10-05T07:26:11.101Z,76.20
2018-10-05T07:28:39.417Z,75.70
2018-10-05T07:31:07.580Z,75.20
2018-10-05T07:33:35.885Z,75.10
2018-10-05T07:36:04.161Z,74.60
2018-10-05T07:38:32.398Z,73.80
2018-10-05T07:41:00.781Z,73.90
2018-10-05T07:43:28.994Z,74.00
2018-10-05T07:45:57.191Z,73.80
2018-10-05T07:48:25.469Z,72.50
2018-10-05T07:50:54.342Z,71.80
2018-10-05T07:53:22.584Z,71.20
2018-10-05T07:55:50.955Z,70.90
2018-10-05T07:58:19.135Z,70.30
2018-10-05T08:00:47.424Z,70.40
2018-10-05T08:03:15.663Z,70.10
2018-10-05T08:05:43.856Z,68.90
2018-10-05T08:08:12.031Z,69.30
2018-10-05T08:10:40.265Z,68.60
2018-10-05T08:13:08.472Z,68.20
2018-10-05T08:15:36.728Z,67.60
2018-10-05T08:18:04.978Z,67.60
2018-10-05T08:20:33.181Z,66.90
2018-10-05T08:23:01.396Z,67.00
2018-10-05T08:25:29.576Z,66.90
2018-10-05T08:27:57.741Z,65.50
2018-10-05T08:30:26.032Z,65.60
2018-10-05T08:32:54.290Z,65.40
2018-10-05T08:35:22.507Z,63.90
2018-10-05T08:37:50.750Z,59.20
2018-10-05T08:40:19.071Z,56.00
2018-10-05T08:42:47.424Z,51.60
2018-10-05T08:45:15.790Z,50.00
2018-10-05T08:47:44.118Z,49.80
2018-10-05T08:50:12.314Z,49.10
2018-10-05T08:52:40.530Z,47.20
2018-10-05T08:55:08.714Z,44.60
2018-10-05T08:57:36.978Z,43.50
2018-10-05T09:00:05.637Z,43.40
2018-10-05T09:02:33.834Z,43.70
2018-10-05T09:05:02.043Z,43.00
2018-10-05T09:07:30.311Z,42.40
2018-10-05T09:09:58.628Z,42.20
2018-10-05T09:12:26.788Z,41.10
2018-10-05T09:14:55.052Z,41.30
2018-10-05T09:17:23.244Z,41.10
2018-10-05T09:19:51.412Z,40.10
2018-10-05T09:22:19.551Z,41.00
2018-10-05T09:24:48.316Z,40.10
2018-10-05T09:27:16.598Z,38.90
2018-10-05T09:29:44.905Z,39.30
2018-10-05T09:32:13.087Z,38.70
2018-10-05T09:34:41.439Z,39.10
2018-10-05T09:37:09.660Z,38.20
2018-10-05T09:39:37.912Z,39.50
2018-10-05T09:42:06.214Z,37.90
2018-10-05T09:44:34.571Z,37.90
2018-10-05T09:47:03.205Z,37.40
2018-10-05T09:49:31.412Z,37.60
2018-10-05T09:51:59.752Z,37.80
2018-10-05T09:54:28.600Z,36.40
2018-10-05T09:56:56.867Z,37.10
2018-10-05T09:59:25.249Z,37.60
2018-10-05T10:01:59.087Z,37.50
2018-10-05T10:04:27.504Z,38.50
2018-10-05T10:06:55.723Z,39.20
2018-10-05T10:09:23.976Z,39.30
2018-10-05T10:11:52.205Z,39.90
2018-10-05T10:14:20.415Z,39.40
2018-10-05T10:16:48.611Z,40.00
2018-10-05T10:19:16.955Z,39.40
2018-10-05T10:21:45.212Z,39.50
2018-10-05T10:24:13.502Z,39.00
2018-10-05T10:26:41.775Z,39.40
2018-10-05T10:29:10.079Z,39.20
2018-10-05T10:31:38.327Z,39.00
2018-10-05T10:34:06.794Z,39.30
2018-10-05T10:36:35.078Z,39.80
2018-10-05T10:39:03.501Z,39.20
2018-10-05T10:41:31.931Z,39.60
2018-10-05T10:44:00.296Z,39.50
2018-10-05T10:46:28.629Z,38.80
2018-10-05T10:48:56.914Z,39.00
2018-10-05T10:51:25.068Z,38.40
2018-10-05T10:53:53.372Z,37.70
2018-10-05T10:56:21.627Z,38.60
2018-10-05T10:58:49.813Z,38.00
2018-10-05T11:01:18.360Z,38.10
2018-10-05T11:03:46.632Z,38.10
2018-10-05T11:06:14.950Z,38.20
2018-10-05T11:08:43.196Z,37.40
2018-10-05T11:11:11.507Z,38.50
2018-10-05T11:13:39.634Z,37.70
2018-10-05T11:16:07.950Z,37.80
2018-10-05T11:18:36.191Z,38.00
2018-10-05T11:21:04.888Z,37.30
2018-10-05T11:23:33.410Z,36.90
2018-10-05T11:26:01.678Z,38.30
2018-10-05T11:28:29.876Z,37.60
2018-10-05T11:30:58.125Z,37.50
2018-10-05T11:33:26.406Z,37.20
2018-10-05T11:35:54.670Z,37.10
2018-10-05T11:38:23.029Z,37.00
2018-10-05T11:40:51.395Z,37.60
2018-10-05T11:43:19.544Z,38.60
2018-10-05T11:45:47.846Z,37.00
2018-10-05T11:48:16.138Z,36.50
2018-10-05T11:50:44.378Z,35.90
2018-10-05T11:53:12.574Z,35.30
2018-10-05T11:55:40.882Z,34.80
2018-10-05T11:58:09.918Z,35.20
2018-10-05T12:00:38.092Z,35.30
2018-10-05T12:03:06.373Z,35.10
2018-10-05T12:05:34.637Z,34.70
2018-10-05T12:08:02.798Z,33.90
2018-10-05T12:10:31.020Z,34.60
2018-10-05T12:12:59.267Z,34.20
2018-10-05T12:15:27.525Z,32.60
2018-10-05T12:17:58.801Z,32.70
2018-10-05T12:20:27.756Z,32.80
2018-10-05T12:22:56.023Z,32.60
2018-10-05T12:25:24.221Z,33.70
2018-10-05T12:27:52.542Z,34.10
2018-10-05T12:30:20.771Z,34.30
2018-10-05T12:32:55.937Z,34.80
2018-10-05T12:35:24.125Z,35.10
2018-10-05T12:37:52.346Z,34.80
2018-10-05T12:40:20.589Z,34.50
2018-10-05T12:42:48.863Z,33.40
2018-10-05T12:45:17.115Z,34.10
2018-10-05T12:47:45.391Z,33.80
2018-10-05T12:50:13.696Z,34.30
2018-10-05T12:52:41.869Z,34.70
2018-10-05T12:55:10.078Z,35.20
2018-10-05T12:57:38.389Z,34.90
2018-10-05T13:00:06.769Z,35.20
2018-10-05T13:02:35.012Z,35.20
2018-10-05T13:05:03.317Z,35.00
2018-10-05T13:07:31.517Z,35.20
2018-10-05T13:09:59.811Z,35.70
2018-10-05T13:12:28.019Z,35.60
2018-10-05T13:14:56.229Z,36.00
2018-10-05T13:17:24.495Z,36.40
2018-10-05T13:19:52.951Z,35.70
2018-10-05T13:22:21.153Z,35.90
2018-10-05T13:24:49.442Z,36.20
2018-10-05T13:27:17.729Z,35.90
2018-10-05T13:29:45.969Z,35.60
2018-10-05T13:32:14.231Z,35.20
2018-10-05T13:34:42.437Z,35.60
2018-10-05T13:37:10.741Z,35.50
2018-10-05T13:39:39.168Z,35.90
2018-10-05T13:42:07.563Z,36.00
2018-10-05T13:44:35.943Z,37.00
2018-10-05T13:47:04.425Z,37.60
2018-10-05T13:49:32.609Z,37.70
2018-10-05T13:52:00.839Z,37.80
2018-10-05T13:54:29.073Z,38.20
2018-10-05T13:56:57.361Z,38.30
2018-10-05T13:59:25.588Z,37.80
2018-10-05T14:01:53.981Z,38.10
2018-10-05T14:04:22.926Z,38.60
2018-10-05T14:06:51.184Z,39.10
2018-10-05T14:09:19.492Z,38.80
2018-10-05T14:11:47.757Z,39.00
2018-10-05T14:14:15.999Z,38.70
2018-10-05T14:16:44.252Z,38.90
2018-10-05T14:19:12.568Z,38.90
2018-10-05T14:21:40.800Z,39.00
2018-10-05T14:24:09.081Z,39.30
2018-10-05T14:26:37.330Z,39.20
2018-10-05T14:29:05.570Z,39.20
2018-10-05T14:31:33.729Z,39.40
2018-10-05T14:34:02.291Z,40.10
2018-10-05T14:36:30.499Z,40.20
2018-10-05T14:38:59.034Z,40.20
2018-10-05T14:41:27.335Z,40.50
2018-10-05T14:43:55.912Z,40.60
2018-10-05T14:46:24.242Z,40.90
2018-10-05T14:51:27.317Z,41.40
2018-10-05T14:53:55.551Z,41.30
2018-10-05T14:56:23.795Z,41.90
2018-10-05T14:58:51.990Z,41.50
2018-10-05T15:01:20.269Z,41.50
2018-10-05T15:03:48.512Z,41.40
2018-10-05T15:06:17.958Z,41.80
2018-10-05T15:08:46.135Z,41.90
2018-10-05T15:11:14.368Z,42.00
2018-10-05T15:13:42.601Z,42.10
2018-10-05T15:16:11.105Z,42.10
2018-10-05T15:18:39.436Z,42.50
2018-10-05T15:21:08.044Z,42.60
2018-10-05T15:23:36.590Z,42.50
2018-10-05T15:26:04.882Z,42.30
2018-10-05T15:28:33.124Z,42.40
2018-10-05T15:31:01.368Z,42.80
2018-10-05T15:33:29.603Z,43.10
2018-10-05T15:35:58.018Z,43.50
2018-10-05T15:38:26.228Z,43.70
2018-10-05T15:40:54.430Z,43.90
2018-10-05T15:43:22.670Z,44.00
2018-10-05T15:45:50.884Z,44.20
2018-10-05T15:48:19.264Z,44.40
2018-10-05T15:50:47.568Z,44.40
2018-10-05T15:53:22.642Z,44.90
2018-10-05T15:55:50.924Z,44.90
2018-10-05T15:58:19.153Z,45.40
2018-10-05T16:00:47.480Z,45.00
2018-10-05T16:03:15.675Z,45.30
2018-10-05T16:05:44.009Z,45.40
2018-10-05T16:08:12.298Z,45.60
2018-10-05T16:10:40.489Z,45.70
2018-10-05T16:13:08.673Z,46.20
2018-10-05T16:15:36.922Z,46.50
2018-10-05T16:18:05.212Z,47.00
2018-10-05T16:20:33.436Z,47.50
2018-10-05T16:23:01.862Z,47.70
2018-10-05T16:25:30.187Z,48.10
2018-10-05T16:27:58.415Z,48.50
2018-10-05T16:30:26.577Z,48.90
2018-10-05T16:32:55.456Z,49.30
2018-10-05T16:35:23.683Z,49.40
2018-10-05T16:37:51.951Z,49.60
2018-10-05T16:40:20.183Z,49.90
2018-10-05T16:42:48.396Z,50.10
2018-10-05T16:45:16.602Z,50.40
2018-10-05T16:47:44.895Z,50.60
2018-10-05T16:50:13.106Z,51.00
2018-10-05T16:52:41.957Z,51.40
2018-10-05T16:55:10.306Z,51.90
2018-10-05T16:57:38.595Z,52.20
2018-10-05T17:00:07.173Z,52.40
2018-10-05T17:02:35.440Z,52.60
2018-10-05T17:05:03.809Z,52.90
2018-10-05T17:07:32.088Z,53.00
2018-10-05T17:10:01.186Z,53.20
2018-10-05T17:12:29.344Z,53.00
2018-10-05T17:14:57.563Z,53.30
2018-10-05T17:17:25.791Z,53.70
2018-10-05T17:19:54.028Z,53.60
2018-10-05T17:22:22.307Z,53.90
2018-10-05T17:24:50.585Z,54.40
2018-10-05T17:27:18.796Z,53.80
2018-10-05T17:29:47.176Z,53.60
2018-10-05T17:32:15.405Z,53.80
2018-10-05T17:34:43.608Z,54.20
2018-10-05T17:37:11.766Z,54.40
2018-10-05T17:39:40.167Z,54.30
2018-10-05T17:42:08.425Z,54.50
2018-10-05T17:44:36.748Z,54.50
2018-10-05T17:47:05.028Z,54.70
2018-10-05T17:49:33.376Z,54.90
2018-10-05T17:52:02.081Z,55.40
2018-10-05T17:54:30.430Z,55.70
2018-10-05T17:56:58.696Z,55.80
2018-10-05T17:59:26.836Z,55.90
2018-10-05T18:01:55.289Z,55.60
2018-10-05T18:04:23.393Z,55.90
2018-10-05T18:06:51.721Z,56.00
2018-10-05T18:09:19.857Z,56.00
2018-10-05T18:11:48.214Z,56.20
2018-10-05T18:14:16.363Z,56.50
2018-10-05T18:16:44.762Z,56.60
2018-10-05T18:19:12.958Z,56.80
2018-10-05T18:21:41.206Z,57.00
2018-10-05T18:24:09.444Z,57.00
2018-10-05T18:26:37.668Z,57.10
2018-10-05T18:29:05.941Z,57.40
2018-10-05T18:31:34.198Z,57.40
2018-10-05T18:34:02.556Z,57.50
2018-10-05T18:36:31.626Z,57.70
2018-10-05T18:38:59.880Z,57.90
2018-10-05T18:41:28.137Z,57.80
2018-10-05T18:43:56.440Z,58.10
2018-10-05T18:46:24.611Z,58.20
2018-10-05T18:48:52.860Z,58.30
2018-10-05T18:51:21.221Z,58.60
2018-10-05T18:53:49.522Z,58.50
2018-10-05T18:56:29.260Z,58.60
2018-10-05T18:58:57.536Z,58.80
2018-10-05T19:01:25.758Z,58.80
2018-10-05T19:03:54.138Z,59.00
2018-10-05T19:06:22.717Z,58.90
2018-10-05T19:08:50.988Z,59.10
2018-10-05T19:11:19.854Z,59.20
2018-10-05T19:13:48.107Z,59.20
2018-10-05T19:16:16.449Z,59.20
2018-10-05T19:18:44.774Z,59.30
2018-10-05T19:21:13.026Z,59.30
2018-10-05T19:23:41.243Z,59.40
2018-10-05T19:26:09.610Z,59.30
2018-10-05T19:28:37.862Z,59.40
2018-10-05T19:31:06.280Z,59.70
2018-10-05T19:33:35.427Z,60.30
2018-10-05T19:36:03.746Z,59.60
2018-10-05T19:38:32.021Z,59.80
2018-10-05T19:41:00.517Z,59.90
2018-10-05T19:43:28.910Z,60.20
2018-10-05T19:45:57.208Z,59.90
2018-10-05T19:48:26.495Z,60.20
2018-10-05T19:51:01.327Z,60.90
2018-10-05T19:53:29.611Z,61.30
2018-10-05T19:55:58.905Z,61.50
2018-10-05T19:58:27.244Z,61.60
2018-10-05T20:00:55.587Z,61.60
2018-10-05T20:03:24.056Z,62.00
2018-10-05T20:05:53.320Z,62.10
2018-10-05T20:08:21.705Z,62.20
2018-10-05T20:10:50.100Z,62.40
2018-10-05T20:13:18.451Z,62.70
2018-10-05T20:15:46.716Z,62.70
2018-10-05T20:18:15.134Z,62.70
2018-10-05T20:20:43.550Z,63.20
2018-10-05T20:23:11.887Z,63.00
2018-10-05T20:25:40.324Z,63.30
2018-10-05T20:28:08.640Z,63.80
2018-10-05T20:30:37.408Z,64.10
2018-10-05T20:33:05.744Z,65.10
2018-10-05T20:35:34.141Z,64.50
2018-10-05T20:38:03.194Z,64.60
2018-10-05T20:40:31.723Z,65.00
2018-10-05T20:43:00.458Z,65.30
2018-10-05T20:45:28.784Z,65.60
2018-10-05T20:47:57.282Z,65.10
2018-10-05T20:50:25.568Z,65.20
2018-10-05T20:52:54.405Z,65.30
2018-10-05T20:55:22.763Z,65.60
2018-10-05T20:57:50.960Z,65.80
2018-10-05T21:00:19.194Z,66.00
2018-10-05T21:02:47.398Z,65.60
2018-10-05T21:05:15.676Z,65.70
2018-10-05T21:07:44.262Z,65.90
2018-10-05T21:10:19.181Z,65.90
2018-10-05T21:12:47.393Z,65.80
2018-10-05T21:15:15.758Z,66.00
2018-10-05T21:17:43.959Z,66.30
2018-10-05T21:20:12.328Z,66.40
2018-10-05T21:22:40.548Z,66.70
2018-10-05T21:25:09.631Z,66.90
2018-10-05T21:27:37.844Z,67.00
2018-10-05T21:30:09.709Z,67.20
2018-10-05T21:32:37.963Z,67.20
2018-10-05T21:35:06.294Z,67.60
2018-10-05T21:37:34.494Z,68.00
2018-10-05T21:40:02.739Z,68.10
2018-10-05T21:42:31.179Z,68.50
2018-10-05T21:45:06.243Z,68.20
2018-10-05T21:47:34.401Z,68.60
2018-10-05T21:50:02.799Z,68.50
2018-10-05T21:52:31.102Z,69.00
2018-10-05T21:54:59.284Z,68.90
2018-10-05T21:57:27.547Z,69.20
2018-10-05T21:59:55.736Z,69.40
2018-10-05T22:02:23.907Z,69.70
2018-10-05T22:04:58.851Z,70.70
2018-10-05T22:07:27.079Z,70.00
2018-10-05T22:09:55.455Z,70.10
2018-10-05T22:12:23.719Z,70.10
2018-10-05T22:14:51.961Z,70.10
2018-10-05T22:17:20.185Z,70.10
2018-10-05T22:19:48.620Z,70.20
2018-10-05T22:22:16.773Z,70.10
2018-10-05T22:24:45.013Z,70.10
2018-10-05T22:27:13.186Z,70.60
2018-10-05T22:29:41.414Z,70.20
2018-10-05T22:32:16.561Z,70.30
2018-10-05T22:34:44.876Z,70.20
2018-10-05T22:37:13.388Z,70.30
2018-10-05T22:39:41.603Z,70.50
2018-10-05T22:42:09.875Z,70.20
2018-10-05T22:44:38.081Z,70.10
2018-10-05T22:47:06.338Z,69.90
2018-10-05T22:49:34.528Z,70.00
2018-10-05T22:52:02.734Z,70.10
2018-10-05T22:54:30.948Z,70.10
2018-10-05T22:56:59.131Z,70.00
2018-10-05T22:59:27.361Z,69.80
2018-10-05T23:02:02.371Z,69.80
2018-10-05T23:04:30.535Z,69.40
2018-10-05T23:06:58.786Z,69.10
2018-10-05T23:09:27.188Z,69.10
2018-10-05T23:11:55.421Z,69.10
2018-10-05T23:14:23.696Z,68.80
2018-10-05T23:16:51.853Z,68.70
2018-10-05T23:19:20.053Z,68.90
2018-10-05T23:21:48.447Z,68.80
2018-10-05T23:24:16.634Z,68.80
2018-10-05T23:26:44.837Z,68.50
2018-10-05T23:29:29.492Z,69.10
2018-10-05T23:31:57.667Z,68.70
2018-10-05T23:34:25.907Z,69.00
2018-10-05T23:36:54.081Z,69.00
2018-10-05T23:39:22.481Z,70.00
2018-10-05T23:41:50.652Z,69.30
2018-10-05T23:44:18.873Z,69.40
2018-10-05T23:46:47.225Z,69.40
2018-10-05T23:49:15.488Z,69.70
2018-10-05T23:51:43.849Z,69.70
2018-10-05T23:54:18.403Z,69.90
2018-10-05T23:56:46.652Z,70.00
2018-10-05T23:59:14.869Z,70.30
